EmailTwitter


Observations de surface / France / LFBO (07630)

Régions: Québec | Canada | États-Unis | Europe | France | UK | Ailleurs
Station
Affichage
Infos & localisation pour LFBO (07630) | Aide pour décoder les METARs

Observations prises le 2020-03-29 à 11H30 UTC à TOULOUSE/BLAGNAC, FR (LFBO)

Etat du ciel: partiellement nuageux.

Température: 15.0 Celsius

Point de rosée: 7.0 Celsius

Humidité relative: 59%

Vents: Ouest-nord-ouest à 26 km/h ou 14 noeuds.

Pression au niveau moyen de la mer: 101.80 kilopascals.

Visibilité horizontale: 4.97 milles terrestres ou 7.95 kilomètres.

Hauteur du plafond: 2377 mètres ( 7800 pieds ).

Observation METAR:

LFBO 291130Z AUTO 29014KT 260V320 8000 FEW033 BKN078 15/07 Q1018 TEMPO

34015G25KT 4500 -SHRA BKN012 SCT025TCU=